Scaly Mountain, North Carolina
Current Conditions -  °F | °C
As of 1:55 AM on Friday 28 Nov 2014 (Local Time) from KTOC Reporting Station
Clear Clear  
Wind Chill: 26°   Ceiling: Unl
Heat Index: 33°   Visibility: 10mi
Dew Point: 22°   Wind: 8mph
Humidity: 65%   Direction: 330°NNW
Pressure: 30.32"   Gusts: NA
Location:  35.04°N, 83.28°W
Report Text: KTOC 280655Z AUTO 33007KT 10SM CLR 01/M05 A3032 RMK AO2 T00051055
Loading
Personal Weather Stations






























Interactive Weather Map New forecast layout! Learn more

10-Day Weather Forecast

Advertisements
Track Severe Weather on mobile